sensor_id;sensor_type;location;lat;lon;timestamp;P1;durP1;ratioP1;P2;durP2;ratioP2
24373;SDS011;12498;50.880;12.096;2023-04-19T00:00:04;40.97;;;27.02;;
24373;SDS011;12498;50.880;12.096;2023-04-19T00:02:33;44.30;;;27.33;;
24373;SDS011;12498;50.880;12.096;2023-04-19T00:05:00;37.33;;;25.55;;
24373;SDS011;12498;50.880;12.096;2023-04-19T00:07:26;38.80;;;25.77;;
24373;SDS011;12498;50.880;12.096;2023-04-19T00:09:52;37.50;;;24.60;;
24373;SDS011;12498;50.880;12.096;2023-04-19T00:12:17;36.17;;;22.88;;
24373;SDS011;12498;50.880;12.096;2023-04-19T00:14:43;38.13;;;20.88;;
24373;SDS011;12498;50.880;12.096;2023-04-19T00:17:09;30.45;;;20.20;;
24373;SDS011;12498;50.880;12.096;2023-04-19T00:19:35;28.63;;;18.92;;
24373;SDS011;12498;50.880;12.096;2023-04-19T00:22:01;29.77;;;18.83;;
24373;SDS011;12498;50.880;12.096;2023-04-19T00:24:27;29.88;;;18.30;;
24373;SDS011;12498;50.880;12.096;2023-04-19T00:26:53;28.15;;;18.48;;
24373;SDS011;12498;50.880;12.096;2023-04-19T00:29:18;33.38;;;21.17;;
24373;SDS011;12498;50.880;12.096;2023-04-19T00:31:44;29.85;;;20.48;;
24373;SDS011;12498;50.880;12.096;2023-04-19T00:34:09;31.33;;;20.63;;
24373;SDS011;12498;50.880;12.096;2023-04-19T00:36:35;33.78;;;20.08;;
24373;SDS011;12498;50.880;12.096;2023-04-19T00:39:01;28.17;;;20.35;;
24373;SDS011;12498;50.880;12.096;2023-04-19T00:41:27;32.47;;;20.27;;
24373;SDS011;12498;50.880;12.096;2023-04-19T00:43:53;30.98;;;18.40;;
24373;SDS011;12498;50.880;12.096;2023-04-19T00:46:18;25.05;;;17.38;;
24373;SDS011;12498;50.880;12.096;2023-04-19T00:48:45;30.27;;;16.30;;
24373;SDS011;12498;50.880;12.096;2023-04-19T00:51:12;25.65;;;16.65;;
24373;SDS011;12498;50.880;12.096;2023-04-19T00:53:38;26.75;;;16.95;;
24373;SDS011;12498;50.880;12.096;2023-04-19T00:56:05;26.08;;;17.15;;
24373;SDS011;12498;50.880;12.096;2023-04-19T00:58:31;24.83;;;18.00;;
24373;SDS011;12498;50.880;12.096;2023-04-19T01:00:57;26.48;;;18.52;;
24373;SDS011;12498;50.880;12.096;2023-04-19T01:03:23;33.08;;;19.85;;
24373;SDS011;12498;50.880;12.096;2023-04-19T01:05:51;25.38;;;17.45;;
24373;SDS011;12498;50.880;12.096;2023-04-19T01:08:17;20.30;;;15.30;;
24373;SDS011;12498;50.880;12.096;2023-04-19T01:10:42;25.92;;;16.17;;
24373;SDS011;12498;50.880;12.096;2023-04-19T01:13:08;29.27;;;15.82;;
24373;SDS011;12498;50.880;12.096;2023-04-19T01:15:34;21.75;;;14.23;;
24373;SDS011;12498;50.880;12.096;2023-04-19T01:18:00;24.30;;;13.43;;
24373;SDS011;12498;50.880;12.096;2023-04-19T01:20:26;20.73;;;12.50;;
24373;SDS011;12498;50.880;12.096;2023-04-19T01:22:52;16.90;;;12.02;;
24373;SDS011;12498;50.880;12.096;2023-04-19T01:25:17;20.13;;;12.02;;
24373;SDS011;12498;50.880;12.096;2023-04-19T01:27:43;20.10;;;13.27;;
24373;SDS011;12498;50.880;12.096;2023-04-19T01:30:09;20.83;;;11.82;;
24373;SDS011;12498;50.880;12.096;2023-04-19T01:32:35;19.20;;;12.00;;
24373;SDS011;12498;50.880;12.096;2023-04-19T01:35:00;20.02;;;12.00;;
24373;SDS011;12498;50.880;12.096;2023-04-19T01:37:26;21.85;;;12.48;;
24373;SDS011;12498;50.880;12.096;2023-04-19T01:39:52;17.23;;;10.85;;
24373;SDS011;12498;50.880;12.096;2023-04-19T01:42:17;17.48;;;10.32;;
24373;SDS011;12498;50.880;12.096;2023-04-19T01:44:43;20.42;;;10.18;;
24373;SDS011;12498;50.880;12.096;2023-04-19T01:47:08;15.38;;;9.60;;
24373;SDS011;12498;50.880;12.096;2023-04-19T01:49:34;19.02;;;10.20;;
24373;SDS011;12498;50.880;12.096;2023-04-19T01:52:00;16.25;;;9.65;;
24373;SDS011;12498;50.880;12.096;2023-04-19T01:54:26;12.70;;;8.82;;
24373;SDS011;12498;50.880;12.096;2023-04-19T01:56:51;16.33;;;9.20;;
24373;SDS011;12498;50.880;12.096;2023-04-19T01:59:17;14.25;;;9.30;;
24373;SDS011;12498;50.880;12.096;2023-04-19T02:01:43;16.02;;;9.02;;
24373;SDS011;12498;50.880;12.096;2023-04-19T02:04:08;15.48;;;8.60;;
24373;SDS011;12498;50.880;12.096;2023-04-19T02:06:34;17.30;;;8.32;;
24373;SDS011;12498;50.880;12.096;2023-04-19T02:09:00;13.15;;;8.15;;
24373;SDS011;12498;50.880;12.096;2023-04-19T02:11:25;17.00;;;8.73;;
24373;SDS011;12498;50.880;12.096;2023-04-19T02:13:51;13.55;;;7.85;;
24373;SDS011;12498;50.880;12.096;2023-04-19T02:16:16;19.67;;;8.65;;
24373;SDS011;12498;50.880;12.096;2023-04-19T02:18:42;14.25;;;8.30;;
24373;SDS011;12498;50.880;12.096;2023-04-19T02:21:08;16.15;;;8.82;;
24373;SDS011;12498;50.880;12.096;2023-04-19T02:23:34;15.07;;;8.95;;
24373;SDS011;12498;50.880;12.096;2023-04-19T02:26:00;16.08;;;8.60;;
24373;SDS011;12498;50.880;12.096;2023-04-19T02:28:29;15.68;;;8.50;;
24373;SDS011;12498;50.880;12.096;2023-04-19T02:30:55;19.95;;;8.40;;
24373;SDS011;12498;50.880;12.096;2023-04-19T02:33:22;14.27;;;7.63;;
24373;SDS011;12498;50.880;12.096;2023-04-19T02:35:48;15.52;;;8.25;;
24373;SDS011;12498;50.880;12.096;2023-04-19T02:38:13;13.60;;;7.93;;
24373;SDS011;12498;50.880;12.096;2023-04-19T02:40:39;14.00;;;7.50;;
24373;SDS011;12498;50.880;12.096;2023-04-19T02:43:05;11.90;;;7.07;;
24373;SDS011;12498;50.880;12.096;2023-04-19T02:45:30;12.70;;;7.88;;
24373;SDS011;12498;50.880;12.096;2023-04-19T02:47:56;15.50;;;8.27;;
24373;SDS011;12498;50.880;12.096;2023-04-19T02:50:23;11.93;;;7.75;;
24373;SDS011;12498;50.880;12.096;2023-04-19T02:52:53;15.57;;;7.75;;
24373;SDS011;12498;50.880;12.096;2023-04-19T02:55:18;11.40;;;7.45;;
24373;SDS011;12498;50.880;12.096;2023-04-19T02:57:44;12.30;;;7.40;;
24373;SDS011;12498;50.880;12.096;2023-04-19T03:00:10;15.77;;;8.07;;
24373;SDS011;12498;50.880;12.096;2023-04-19T03:02:36;16.73;;;8.20;;
24373;SDS011;12498;50.880;12.096;2023-04-19T03:05:03;15.20;;;8.25;;
24373;SDS011;12498;50.880;12.096;2023-04-19T03:07:30;16.48;;;8.20;;
24373;SDS011;12498;50.880;12.096;2023-04-19T03:09:56;12.85;;;7.97;;
24373;SDS011;12498;50.880;12.096;2023-04-19T03:12:21;15.88;;;8.57;;
24373;SDS011;12498;50.880;12.096;2023-04-19T03:14:47;14.80;;;8.70;;
24373;SDS011;12498;50.880;12.096;2023-04-19T03:17:13;15.15;;;8.95;;
24373;SDS011;12498;50.880;12.096;2023-04-19T03:19:39;14.80;;;8.55;;
24373;SDS011;12498;50.880;12.096;2023-04-19T03:22:05;15.82;;;9.35;;
24373;SDS011;12498;50.880;12.096;2023-04-19T03:24:30;16.15;;;9.50;;
24373;SDS011;12498;50.880;12.096;2023-04-19T03:26:56;18.52;;;9.70;;
24373;SDS011;12498;50.880;12.096;2023-04-19T03:29:22;18.52;;;10.55;;
24373;SDS011;12498;50.880;12.096;2023-04-19T03:31:48;18.02;;;11.05;;
24373;SDS011;12498;50.880;12.096;2023-04-19T03:34:14;20.63;;;11.70;;
24373;SDS011;12498;50.880;12.096;2023-04-19T03:36:40;17.20;;;11.02;;
24373;SDS011;12498;50.880;12.096;2023-04-19T03:39:05;20.02;;;11.43;;
24373;SDS011;12498;50.880;12.096;2023-04-19T03:41:31;21.63;;;12.60;;
24373;SDS011;12498;50.880;12.096;2023-04-19T03:43:57;21.70;;;12.50;;
24373;SDS011;12498;50.880;12.096;2023-04-19T03:46:23;23.65;;;13.15;;
24373;SDS011;12498;50.880;12.096;2023-04-19T03:48:49;23.75;;;13.00;;
24373;SDS011;12498;50.880;12.096;2023-04-19T03:51:16;23.92;;;13.32;;
24373;SDS011;12498;50.880;12.096;2023-04-19T03:53:42;23.40;;;13.70;;
24373;SDS011;12498;50.880;12.096;2023-04-19T03:56:07;24.67;;;13.68;;
24373;SDS011;12498;50.880;12.096;2023-04-19T03:58:33;26.75;;;14.55;;
24373;SDS011;12498;50.880;12.096;2023-04-19T04:00:59;26.67;;;15.95;;
24373;SDS011;12498;50.880;12.096;2023-04-19T04:03:25;26.25;;;15.13;;
24373;SDS011;12498;50.880;12.096;2023-04-19T04:05:50;26.17;;;15.38;;
24373;SDS011;12498;50.880;12.096;2023-04-19T04:08:16;31.05;;;16.75;;
24373;SDS011;12498;50.880;12.096;2023-04-19T04:10:42;32.00;;;16.63;;
24373;SDS011;12498;50.880;12.096;2023-04-19T04:13:07;32.78;;;16.70;;
24373;SDS011;12498;50.880;12.096;2023-04-19T04:15:33;33.38;;;16.88;;
24373;SDS011;12498;50.880;12.096;2023-04-19T04:17:59;31.35;;;17.58;;
24373;SDS011;12498;50.880;12.096;2023-04-19T04:20:28;36.35;;;19.40;;
24373;SDS011;12498;50.880;12.096;2023-04-19T04:22:53;36.20;;;19.15;;
24373;SDS011;12498;50.880;12.096;2023-04-19T04:25:19;34.13;;;18.73;;
24373;SDS011;12498;50.880;12.096;2023-04-19T04:27:45;36.28;;;20.13;;
24373;SDS011;12498;50.880;12.096;2023-04-19T04:30:11;41.20;;;20.88;;
24373;SDS011;12498;50.880;12.096;2023-04-19T04:32:37;38.28;;;21.50;;
24373;SDS011;12498;50.880;12.096;2023-04-19T04:35:05;37.85;;;22.63;;
24373;SDS011;12498;50.880;12.096;2023-04-19T04:37:31;46.22;;;24.27;;
24373;SDS011;12498;50.880;12.096;2023-04-19T04:39:58;39.78;;;21.88;;
24373;SDS011;12498;50.880;12.096;2023-04-19T04:42:30;34.42;;;20.48;;
24373;SDS011;12498;50.880;12.096;2023-04-19T04:44:56;34.22;;;21.75;;
24373;SDS011;12498;50.880;12.096;2023-04-19T04:47:23;34.65;;;19.20;;
24373;SDS011;12498;50.880;12.096;2023-04-19T04:49:48;37.70;;;18.63;;
24373;SDS011;12498;50.880;12.096;2023-04-19T04:52:14;38.78;;;18.73;;
24373;SDS011;12498;50.880;12.096;2023-04-19T04:54:41;35.58;;;17.30;;
24373;SDS011;12498;50.880;12.096;2023-04-19T04:57:07;32.53;;;17.08;;
24373;SDS011;12498;50.880;12.096;2023-04-19T04:59:32;30.02;;;16.90;;
24373;SDS011;12498;50.880;12.096;2023-04-19T05:01:58;28.17;;;15.98;;
24373;SDS011;12498;50.880;12.096;2023-04-19T05:04:24;28.17;;;14.98;;
24373;SDS011;12498;50.880;12.096;2023-04-19T05:06:50;22.77;;;13.93;;
24373;SDS011;12498;50.880;12.096;2023-04-19T05:09:16;30.65;;;14.88;;
24373;SDS011;12498;50.880;12.096;2023-04-19T05:11:41;29.38;;;13.98;;
24373;SDS011;12498;50.880;12.096;2023-04-19T05:14:07;26.20;;;13.48;;
24373;SDS011;12498;50.880;12.096;2023-04-19T05:16:32;22.70;;;13.23;;
24373;SDS011;12498;50.880;12.096;2023-04-19T05:18:58;24.67;;;13.13;;
24373;SDS011;12498;50.880;12.096;2023-04-19T05:21:24;28.50;;;12.98;;
24373;SDS011;12498;50.880;12.096;2023-04-19T05:23:50;23.55;;;11.32;;
24373;SDS011;12498;50.880;12.096;2023-04-19T05:26:17;19.33;;;9.50;;
24373;SDS011;12498;50.880;12.096;2023-04-19T05:28:43;24.80;;;10.57;;
24373;SDS011;12498;50.880;12.096;2023-04-19T05:31:09;20.77;;;10.60;;
24373;SDS011;12498;50.880;12.096;2023-04-19T05:33:35;17.25;;;10.07;;
24373;SDS011;12498;50.880;12.096;2023-04-19T05:36:01;17.17;;;9.50;;
24373;SDS011;12498;50.880;12.096;2023-04-19T05:38:27;19.20;;;9.85;;
24373;SDS011;12498;50.880;12.096;2023-04-19T05:40:52;17.00;;;10.63;;
24373;SDS011;12498;50.880;12.096;2023-04-19T05:43:18;18.02;;;9.63;;
24373;SDS011;12498;50.880;12.096;2023-04-19T05:45:44;17.85;;;9.18;;
24373;SDS011;12498;50.880;12.096;2023-04-19T05:48:10;20.40;;;9.38;;
24373;SDS011;12498;50.880;12.096;2023-04-19T05:50:35;16.30;;;8.13;;
24373;SDS011;12498;50.880;12.096;2023-04-19T05:53:01;15.38;;;8.55;;
24373;SDS011;12498;50.880;12.096;2023-04-19T05:55:27;17.25;;;7.53;;
24373;SDS011;12498;50.880;12.096;2023-04-19T05:57:53;16.60;;;8.27;;
24373;SDS011;12498;50.880;12.096;2023-04-19T06:00:18;15.98;;;7.40;;
24373;SDS011;12498;50.880;12.096;2023-04-19T06:02:44;19.67;;;7.38;;
24373;SDS011;12498;50.880;12.096;2023-04-19T06:05:10;12.68;;;6.65;;
24373;SDS011;12498;50.880;12.096;2023-04-19T06:07:36;13.52;;;6.43;;
24373;SDS011;12498;50.880;12.096;2023-04-19T06:10:02;16.55;;;6.88;;
24373;SDS011;12498;50.880;12.096;2023-04-19T06:12:28;12.02;;;6.45;;
24373;SDS011;12498;50.880;12.096;2023-04-19T06:14:53;16.63;;;7.00;;
24373;SDS011;12498;50.880;12.096;2023-04-19T06:17:19;15.50;;;6.57;;
24373;SDS011;12498;50.880;12.096;2023-04-19T06:19:52;11.73;;;6.57;;
24373;SDS011;12498;50.880;12.096;2023-04-19T06:22:19;11.18;;;6.00;;
24373;SDS011;12498;50.880;12.096;2023-04-19T06:24:45;11.75;;;6.20;;
24373;SDS011;12498;50.880;12.096;2023-04-19T06:27:12;10.88;;;5.70;;
24373;SDS011;12498;50.880;12.096;2023-04-19T06:29:39;12.27;;;6.03;;
24373;SDS011;12498;50.880;12.096;2023-04-19T06:32:04;12.65;;;5.82;;
24373;SDS011;12498;50.880;12.096;2023-04-19T06:34:30;14.13;;;6.88;;
24373;SDS011;12498;50.880;12.096;2023-04-19T06:36:56;9.75;;;5.55;;
24373;SDS011;12498;50.880;12.096;2023-04-19T06:39:21;14.82;;;5.60;;
24373;SDS011;12498;50.880;12.096;2023-04-19T06:41:47;12.55;;;5.70;;
24373;SDS011;12498;50.880;12.096;2023-04-19T06:44:12;11.90;;;5.22;;
24373;SDS011;12498;50.880;12.096;2023-04-19T06:46:38;10.98;;;5.38;;
24373;SDS011;12498;50.880;12.096;2023-04-19T06:49:04;11.02;;;5.40;;
24373;SDS011;12498;50.880;12.096;2023-04-19T06:51:30;11.75;;;5.15;;
24373;SDS011;12498;50.880;12.096;2023-04-19T06:53:57;12.60;;;5.78;;
24373;SDS011;12498;50.880;12.096;2023-04-19T06:56:42;12.52;;;5.38;;
24373;SDS011;12498;50.880;12.096;2023-04-19T06:59:12;11.13;;;5.15;;
24373;SDS011;12498;50.880;12.096;2023-04-19T07:01:43;7.03;;;4.35;;
24373;SDS011;12498;50.880;12.096;2023-04-19T07:04:09;14.55;;;4.97;;
24373;SDS011;12498;50.880;12.096;2023-04-19T07:06:35;10.38;;;4.28;;
24373;SDS011;12498;50.880;12.096;2023-04-19T07:09:02;13.02;;;4.97;;
24373;SDS011;12498;50.880;12.096;2023-04-19T07:11:29;11.27;;;6.05;;
24373;SDS011;12498;50.880;12.096;2023-04-19T07:13:55;11.02;;;5.93;;
24373;SDS011;12498;50.880;12.096;2023-04-19T07:16:21;13.27;;;5.35;;
24373;SDS011;12498;50.880;12.096;2023-04-19T07:18:46;10.90;;;5.10;;
24373;SDS011;12498;50.880;12.096;2023-04-19T07:21:12;8.50;;;4.60;;
24373;SDS011;12498;50.880;12.096;2023-04-19T07:23:38;9.35;;;4.30;;
24373;SDS011;12498;50.880;12.096;2023-04-19T07:26:04;11.25;;;5.05;;
24373;SDS011;12498;50.880;12.096;2023-04-19T07:28:31;7.80;;;4.53;;
24373;SDS011;12498;50.880;12.096;2023-04-19T07:30:56;8.57;;;3.95;;
24373;SDS011;12498;50.880;12.096;2023-04-19T07:33:23;10.05;;;4.35;;
24373;SDS011;12498;50.880;12.096;2023-04-19T07:35:49;8.52;;;3.78;;
24373;SDS011;12498;50.880;12.096;2023-04-19T07:38:15;6.70;;;4.20;;
24373;SDS011;12498;50.880;12.096;2023-04-19T07:40:41;7.93;;;3.63;;
24373;SDS011;12498;50.880;12.096;2023-04-19T07:43:06;9.93;;;3.45;;
24373;SDS011;12498;50.880;12.096;2023-04-19T07:45:32;7.75;;;3.65;;
24373;SDS011;12498;50.880;12.096;2023-04-19T07:47:58;8.57;;;3.33;;
24373;SDS011;12498;50.880;12.096;2023-04-19T07:50:24;10.38;;;3.47;;
24373;SDS011;12498;50.880;12.096;2023-04-19T07:55:18;7.20;;;3.80;;
24373;SDS011;12498;50.880;12.096;2023-04-19T07:57:44;7.68;;;3.45;;
24373;SDS011;12498;50.880;12.096;2023-04-19T08:00:15;7.03;;;2.78;;
24373;SDS011;12498;50.880;12.096;2023-04-19T08:02:42;7.72;;;2.90;;
24373;SDS011;12498;50.880;12.096;2023-04-19T08:05:09;5.30;;;3.10;;
24373;SDS011;12498;50.880;12.096;2023-04-19T08:07:35;8.43;;;3.90;;
24373;SDS011;12498;50.880;12.096;2023-04-19T08:10:00;10.55;;;3.60;;
24373;SDS011;12498;50.880;12.096;2023-04-19T08:12:26;6.88;;;3.60;;
24373;SDS011;12498;50.880;12.096;2023-04-19T08:14:52;4.78;;;3.35;;
24373;SDS011;12498;50.880;12.096;2023-04-19T08:17:18;6.47;;;3.13;;
24373;SDS011;12498;50.880;12.096;2023-04-19T08:19:48;4.07;;;3.00;;
24373;SDS011;12498;50.880;12.096;2023-04-19T08:22:16;5.80;;;3.30;;
24373;SDS011;12498;50.880;12.096;2023-04-19T08:24:43;6.20;;;3.15;;
24373;SDS011;12498;50.880;12.096;2023-04-19T08:27:09;6.35;;;3.30;;
24373;SDS011;12498;50.880;12.096;2023-04-19T08:29:35;8.40;;;4.10;;
24373;SDS011;12498;50.880;12.096;2023-04-19T08:32:03;6.25;;;3.40;;
24373;SDS011;12498;50.880;12.096;2023-04-19T08:34:29;5.50;;;3.20;;
24373;SDS011;12498;50.880;12.096;2023-04-19T08:36:55;7.97;;;3.33;;
24373;SDS011;12498;50.880;12.096;2023-04-19T08:39:21;7.10;;;3.45;;
24373;SDS011;12498;50.880;12.096;2023-04-19T08:41:47;6.72;;;3.67;;
24373;SDS011;12498;50.880;12.096;2023-04-19T08:44:14;7.53;;;3.97;;
24373;SDS011;12498;50.880;12.096;2023-04-19T08:46:41;7.70;;;4.72;;
24373;SDS011;12498;50.880;12.096;2023-04-19T08:49:08;5.63;;;3.50;;
24373;SDS011;12498;50.880;12.096;2023-04-19T08:51:34;8.02;;;3.17;;
24373;SDS011;12498;50.880;12.096;2023-04-19T08:54:05;6.50;;;3.50;;
24373;SDS011;12498;50.880;12.096;2023-04-19T08:56:32;9.68;;;4.13;;
24373;SDS011;12498;50.880;12.096;2023-04-19T08:58:58;7.65;;;3.85;;
24373;SDS011;12498;50.880;12.096;2023-04-19T09:01:23;9.70;;;3.75;;
24373;SDS011;12498;50.880;12.096;2023-04-19T09:03:49;10.60;;;3.65;;
24373;SDS011;12498;50.880;12.096;2023-04-19T09:06:15;5.03;;;3.30;;
24373;SDS011;12498;50.880;12.096;2023-04-19T09:08:41;7.70;;;3.80;;
24373;SDS011;12498;50.880;12.096;2023-04-19T09:11:06;9.23;;;3.38;;
24373;SDS011;12498;50.880;12.096;2023-04-19T09:13:32;7.03;;;3.28;;
24373;SDS011;12498;50.880;12.096;2023-04-19T09:16:02;8.32;;;3.55;;
24373;SDS011;12498;50.880;12.096;2023-04-19T09:18:28;11.23;;;3.72;;
24373;SDS011;12498;50.880;12.096;2023-04-19T09:20:54;8.93;;;3.78;;
24373;SDS011;12498;50.880;12.096;2023-04-19T09:23:23;4.05;;;2.47;;
24373;SDS011;12498;50.880;12.096;2023-04-19T09:28:21;10.18;;;4.28;;
24373;SDS011;12498;50.880;12.096;2023-04-19T09:30:48;5.53;;;3.70;;
24373;SDS011;12498;50.880;12.096;2023-04-19T09:33:28;7.00;;;3.40;;
24373;SDS011;12498;50.880;12.096;2023-04-19T09:35:57;5.53;;;3.33;;
24373;SDS011;12498;50.880;12.096;2023-04-19T09:38:27;7.00;;;3.75;;
24373;SDS011;12498;50.880;12.096;2023-04-19T09:41:04;6.35;;;3.58;;
24373;SDS011;12498;50.880;12.096;2023-04-19T09:43:33;7.15;;;3.00;;
24373;SDS011;12498;50.880;12.096;2023-04-19T09:45:58;8.57;;;2.88;;
24373;SDS011;12498;50.880;12.096;2023-04-19T09:48:24;9.02;;;3.10;;
24373;SDS011;12498;50.880;12.096;2023-04-19T09:53:17;14.75;;;3.30;;
24373;SDS011;12498;50.880;12.096;2023-04-19T09:55:44;15.77;;;3.08;;
24373;SDS011;12498;50.880;12.096;2023-04-19T09:58:14;6.63;;;3.47;;
24373;SDS011;12498;50.880;12.096;2023-04-19T10:00:40;4.47;;;2.85;;
24373;SDS011;12498;50.880;12.096;2023-04-19T10:03:09;4.73;;;3.10;;
24373;SDS011;12498;50.880;12.096;2023-04-19T10:05:37;7.40;;;3.00;;
24373;SDS011;12498;50.880;12.096;2023-04-19T10:08:08;6.32;;;2.83;;
24373;SDS011;12498;50.880;12.096;2023-04-19T10:10:35;7.65;;;3.17;;
24373;SDS011;12498;50.880;12.096;2023-04-19T10:13:02;7.45;;;3.05;;
24373;SDS011;12498;50.880;12.096;2023-04-19T10:15:31;8.57;;;3.00;;
24373;SDS011;12498;50.880;12.096;2023-04-19T10:17:58;9.90;;;3.10;;
24373;SDS011;12498;50.880;12.096;2023-04-19T10:20:26;5.20;;;2.67;;
24373;SDS011;12498;50.880;12.096;2023-04-19T10:22:57;9.02;;;3.67;;
24373;SDS011;12498;50.880;12.096;2023-04-19T10:25:26;5.70;;;2.75;;
24373;SDS011;12498;50.880;12.096;2023-04-19T10:27:53;6.35;;;3.30;;
24373;SDS011;12498;50.880;12.096;2023-04-19T10:30:20;7.13;;;3.20;;
24373;SDS011;12498;50.880;12.096;2023-04-19T10:32:56;9.77;;;3.45;;
24373;SDS011;12498;50.880;12.096;2023-04-19T10:35:33;8.75;;;3.95;;
24373;SDS011;12498;50.880;12.096;2023-04-19T10:38:09;8.40;;;3.70;;
24373;SDS011;12498;50.880;12.096;2023-04-19T10:43:24;7.55;;;3.72;;
24373;SDS011;12498;50.880;12.096;2023-04-19T10:45:59;6.80;;;3.95;;
24373;SDS011;12498;50.880;12.096;2023-04-19T10:48:30;7.10;;;3.65;;
24373;SDS011;12498;50.880;12.096;2023-04-19T10:56:13;7.78;;;3.35;;
24373;SDS011;12498;50.880;12.096;2023-04-19T11:04:13;9.30;;;3.92;;
24373;SDS011;12498;50.880;12.096;2023-04-19T11:07:12;10.07;;;3.88;;
24373;SDS011;12498;50.880;12.096;2023-04-19T11:09:35;8.38;;;3.45;;
24373;SDS011;12498;50.880;12.096;2023-04-19T11:14:36;6.40;;;3.75;;
24373;SDS011;12498;50.880;12.096;2023-04-19T11:17:24;9.02;;;3.60;;
24373;SDS011;12498;50.880;12.096;2023-04-19T11:22:24;6.80;;;3.33;;
24373;SDS011;12498;50.880;12.096;2023-04-19T11:25:19;7.97;;;3.53;;
24373;SDS011;12498;50.880;12.096;2023-04-19T11:27:46;9.00;;;3.67;;
24373;SDS011;12498;50.880;12.096;2023-04-19T11:30:14;6.88;;;3.30;;
24373;SDS011;12498;50.880;12.096;2023-04-19T11:32:59;8.00;;;4.30;;
24373;SDS011;12498;50.880;12.096;2023-04-19T11:35:25;5.32;;;3.03;;
24373;SDS011;12498;50.880;12.096;2023-04-19T11:37:52;11.65;;;3.38;;
24373;SDS011;12498;50.880;12.096;2023-04-19T11:40:19;6.63;;;3.33;;
24373;SDS011;12498;50.880;12.096;2023-04-19T11:42:55;5.22;;;3.35;;
24373;SDS011;12498;50.880;12.096;2023-04-19T11:45:34;8.52;;;3.63;;
24373;SDS011;12498;50.880;12.096;2023-04-19T11:48:03;9.73;;;4.30;;
24373;SDS011;12498;50.880;12.096;2023-04-19T11:52:55;8.70;;;3.53;;
24373;SDS011;12498;50.880;12.096;2023-04-19T11:55:21;7.50;;;3.92;;
24373;SDS011;12498;50.880;12.096;2023-04-19T11:57:47;11.65;;;4.10;;
24373;SDS011;12498;50.880;12.096;2023-04-19T12:00:13;8.80;;;3.95;;
24373;SDS011;12498;50.880;12.096;2023-04-19T12:02:42;4.95;;;3.15;;
24373;SDS011;12498;50.880;12.096;2023-04-19T12:07:34;6.68;;;3.53;;
24373;SDS011;12498;50.880;12.096;2023-04-19T12:10:07;5.28;;;3.38;;
24373;SDS011;12498;50.880;12.096;2023-04-19T12:12:36;10.57;;;3.40;;
24373;SDS011;12498;50.880;12.096;2023-04-19T12:15:03;7.82;;;3.20;;
24373;SDS011;12498;50.880;12.096;2023-04-19T12:17:30;6.90;;;3.22;;
24373;SDS011;12498;50.880;12.096;2023-04-19T12:19:56;8.18;;;3.90;;
24373;SDS011;12498;50.880;12.096;2023-04-19T12:22:21;7.75;;;3.40;;
24373;SDS011;12498;50.880;12.096;2023-04-19T12:24:50;7.43;;;3.20;;
24373;SDS011;12498;50.880;12.096;2023-04-19T12:27:17;7.07;;;3.05;;
24373;SDS011;12498;50.880;12.096;2023-04-19T12:29:43;7.10;;;3.20;;
24373;SDS011;12498;50.880;12.096;2023-04-19T12:32:09;8.40;;;3.13;;
24373;SDS011;12498;50.880;12.096;2023-04-19T12:34:35;9.70;;;3.00;;
24373;SDS011;12498;50.880;12.096;2023-04-19T12:37:01;11.48;;;5.95;;
24373;SDS011;12498;50.880;12.096;2023-04-19T12:39:28;8.50;;;3.60;;
24373;SDS011;12498;50.880;12.096;2023-04-19T12:41:54;13.00;;;3.75;;
24373;SDS011;12498;50.880;12.096;2023-04-19T12:44:20;10.27;;;3.85;;
24373;SDS011;12498;50.880;12.096;2023-04-19T12:46:46;9.50;;;3.90;;
24373;SDS011;12498;50.880;12.096;2023-04-19T12:49:12;8.50;;;3.33;;
24373;SDS011;12498;50.880;12.096;2023-04-19T12:51:37;9.02;;;4.45;;
24373;SDS011;12498;50.880;12.096;2023-04-19T12:54:03;7.32;;;3.90;;
24373;SDS011;12498;50.880;12.096;2023-04-19T12:56:31;9.38;;;3.90;;
24373;SDS011;12498;50.880;12.096;2023-04-19T12:58:57;14.23;;;4.25;;
24373;SDS011;12498;50.880;12.096;2023-04-19T13:01:22;8.15;;;4.07;;
24373;SDS011;12498;50.880;12.096;2023-04-19T13:03:48;10.30;;;4.05;;
24373;SDS011;12498;50.880;12.096;2023-04-19T13:06:13;8.45;;;3.53;;
24373;SDS011;12498;50.880;12.096;2023-04-19T13:08:40;8.00;;;3.75;;
24373;SDS011;12498;50.880;12.096;2023-04-19T13:11:06;7.78;;;3.72;;
24373;SDS011;12498;50.880;12.096;2023-04-19T13:13:33;21.17;;;4.00;;
24373;SDS011;12498;50.880;12.096;2023-04-19T13:15:59;11.23;;;3.75;;
24373;SDS011;12498;50.880;12.096;2023-04-19T13:18:25;7.82;;;3.53;;
24373;SDS011;12498;50.880;12.096;2023-04-19T13:20:51;9.68;;;3.45;;
24373;SDS011;12498;50.880;12.096;2023-04-19T13:23:17;6.35;;;3.20;;
24373;SDS011;12498;50.880;12.096;2023-04-19T13:25:43;7.60;;;3.28;;
24373;SDS011;12498;50.880;12.096;2023-04-19T13:28:09;13.27;;;3.53;;
24373;SDS011;12498;50.880;12.096;2023-04-19T13:30:34;5.05;;;3.30;;
24373;SDS011;12498;50.880;12.096;2023-04-19T13:33:00;6.00;;;3.40;;
24373;SDS011;12498;50.880;12.096;2023-04-19T13:35:25;7.18;;;3.72;;
24373;SDS011;12498;50.880;12.096;2023-04-19T13:37:51;5.82;;;3.38;;
24373;SDS011;12498;50.880;12.096;2023-04-19T13:40:17;12.35;;;3.47;;
24373;SDS011;12498;50.880;12.096;2023-04-19T13:42:42;7.95;;;2.80;;
24373;SDS011;12498;50.880;12.096;2023-04-19T13:45:08;7.00;;;3.35;;
24373;SDS011;12498;50.880;12.096;2023-04-19T13:47:34;6.50;;;2.88;;
24373;SDS011;12498;50.880;12.096;2023-04-19T13:49:59;6.13;;;3.30;;
24373;SDS011;12498;50.880;12.096;2023-04-19T13:52:25;9.45;;;3.67;;
24373;SDS011;12498;50.880;12.096;2023-04-19T13:54:51;8.85;;;3.97;;
24373;SDS011;12498;50.880;12.096;2023-04-19T13:57:16;9.32;;;3.88;;
24373;SDS011;12498;50.880;12.096;2023-04-19T13:59:42;7.00;;;3.22;;
24373;SDS011;12498;50.880;12.096;2023-04-19T14:02:08;9.63;;;4.88;;
24373;SDS011;12498;50.880;12.096;2023-04-19T14:04:33;6.00;;;3.20;;
24373;SDS011;12498;50.880;12.096;2023-04-19T14:06:59;7.15;;;3.10;;
24373;SDS011;12498;50.880;12.096;2023-04-19T14:09:25;8.10;;;3.13;;
24373;SDS011;12498;50.880;12.096;2023-04-19T14:11:51;7.30;;;3.20;;
24373;SDS011;12498;50.880;12.096;2023-04-19T14:14:17;10.48;;;3.60;;
24373;SDS011;12498;50.880;12.096;2023-04-19T14:16:42;8.73;;;4.15;;
24373;SDS011;12498;50.880;12.096;2023-04-19T14:19:08;6.63;;;3.30;;
24373;SDS011;12498;50.880;12.096;2023-04-19T14:21:34;7.38;;;3.42;;
24373;SDS011;12498;50.880;12.096;2023-04-19T14:24:00;7.57;;;4.45;;
24373;SDS011;12498;50.880;12.096;2023-04-19T14:26:25;10.43;;;4.40;;
24373;SDS011;12498;50.880;12.096;2023-04-19T14:28:51;8.40;;;3.78;;
24373;SDS011;12498;50.880;12.096;2023-04-19T14:31:17;7.75;;;3.75;;
24373;SDS011;12498;50.880;12.096;2023-04-19T14:33:42;6.18;;;3.55;;
24373;SDS011;12498;50.880;12.096;2023-04-19T14:36:08;8.52;;;3.83;;
24373;SDS011;12498;50.880;12.096;2023-04-19T14:38:34;8.15;;;3.45;;
24373;SDS011;12498;50.880;12.096;2023-04-19T14:41:00;8.30;;;3.63;;
24373;SDS011;12498;50.880;12.096;2023-04-19T14:43:27;9.00;;;3.33;;
24373;SDS011;12498;50.880;12.096;2023-04-19T14:45:53;9.05;;;4.05;;
24373;SDS011;12498;50.880;12.096;2023-04-19T14:48:19;9.48;;;3.40;;
24373;SDS011;12498;50.880;12.096;2023-04-19T14:50:45;8.48;;;3.17;;